createdAt,value
2019-03-18T00:00:50.299Z,99606.95
2019-03-18T00:03:19.639Z,99598.66
2019-03-18T00:05:49.032Z,99606.97
2019-03-18T00:08:18.441Z,99603.52
2019-03-18T00:10:48.219Z,99613.40
2019-03-18T00:13:17.619Z,99615.66
2019-03-18T00:30:36.001Z,99641.64
2019-03-18T00:33:05.379Z,99641.48
2019-03-18T00:35:34.999Z,99651.33
2019-03-18T00:38:04.744Z,99652.89
2019-03-18T00:40:34.207Z,99655.16
2019-03-18T00:43:03.763Z,99658.15
2019-03-18T00:45:33.217Z,99663.69
2019-03-18T00:48:02.655Z,99672.04
2019-03-18T00:50:32.446Z,99668.57
2019-03-18T00:53:02.587Z,99671.75
2019-03-18T00:55:32.013Z,99676.21
2019-03-18T00:58:01.764Z,99677.27
2019-03-18T01:00:33.515Z,99684.84
2019-03-18T01:03:02.903Z,99682.88
2019-03-18T01:05:32.358Z,99614.80
2019-03-18T01:08:01.755Z,99697.40
2019-03-18T01:10:31.165Z,99694.53
2019-03-18T01:13:00.616Z,99694.50
2019-03-18T01:15:30.016Z,99697.40
2019-03-18T01:17:59.349Z,99697.69
2019-03-18T01:20:28.631Z,99701.70
2019-03-18T01:22:57.892Z,99699.44
2019-03-18T01:25:27.357Z,99703.14
2019-03-18T01:27:57.054Z,99709.92
2019-03-18T01:30:26.428Z,99707.62
2019-03-18T01:32:56.972Z,99710.48
2019-03-18T01:35:26.570Z,99703.16
2019-03-18T01:38:15.325Z,99701.68
2019-03-18T01:40:45.285Z,99699.00
2019-03-18T01:43:14.841Z,99696.64
2019-03-18T01:45:44.295Z,99697.47
2019-03-18T01:48:14.235Z,99688.52
2019-03-18T01:53:46.628Z,99684.83
2019-03-18T01:56:16.165Z,99677.24
2019-03-18T01:58:46.428Z,99677.53
2019-03-18T02:01:16.077Z,99683.53
2019-03-18T02:03:46.503Z,99682.83
2019-03-18T02:06:16.003Z,99627.73
2019-03-18T02:11:34.481Z,99676.09
2019-03-18T02:14:03.909Z,99677.20
2019-03-18T02:22:14.365Z,99675.58
2019-03-18T02:24:46.521Z,99680.66
2019-03-18T02:27:16.274Z,99674.98
2019-03-18T02:29:45.791Z,99684.22
2019-03-18T02:46:26.627Z,99684.11
2019-03-18T02:49:21.117Z,99684.56
2019-03-18T02:51:52.908Z,99688.86
2019-03-18T02:54:35.547Z,99690.11
2019-03-18T02:57:04.765Z,99687.05
2019-03-18T02:59:34.025Z,99682.84
2019-03-18T03:02:03.306Z,99687.17
2019-03-18T03:04:32.602Z,99691.38
2019-03-18T03:07:01.838Z,99685.77
2019-03-18T03:09:31.115Z,99696.66
2019-03-18T03:12:00.765Z,99688.50
2019-03-18T03:14:30.047Z,99688.50
2019-03-18T03:16:59.872Z,99686.84
2019-03-18T03:19:29.158Z,99683.15
2019-03-18T03:21:58.478Z,99692.90
2019-03-18T03:24:28.096Z,99683.62
2019-03-18T03:26:57.369Z,99684.77
2019-03-18T03:29:26.688Z,99684.54
2019-03-18T03:31:55.991Z,99691.14
2019-03-18T03:34:25.259Z,99691.05
2019-03-18T03:36:54.889Z,99699.08
2019-03-18T03:39:24.166Z,99696.02
2019-03-18T03:41:53.443Z,99696.34
2019-03-18T03:44:22.728Z,99696.34
2019-03-18T03:46:52.308Z,99698.52
2019-03-18T03:49:21.599Z,99702.50
2019-03-18T03:51:50.849Z,99707.02
2019-03-18T03:54:20.430Z,99712.70
2019-03-18T03:56:49.843Z,99716.20
2019-03-18T03:59:19.287Z,99719.06
2019-03-18T04:01:48.653Z,99723.18
2019-03-18T04:04:17.925Z,99736.98
2019-03-18T04:06:47.185Z,99747.47
2019-03-18T04:09:16.690Z,99749.51
2019-03-18T04:11:45.948Z,99756.81
2019-03-18T04:14:15.250Z,99762.26
2019-03-18T04:16:55.886Z,99766.28
2019-03-18T04:19:15.547Z,99772.84
2019-03-18T04:21:44.854Z,99775.71
2019-03-18T04:24:14.068Z,99776.79
2019-03-18T04:26:43.328Z,99776.75
2019-03-18T04:29:12.860Z,99777.77
2019-03-18T04:31:42.173Z,99781.65
2019-03-18T04:34:11.408Z,99787.28
2019-03-18T04:36:40.669Z,99783.64
2019-03-18T04:39:09.979Z,99787.53
2019-03-18T04:41:39.330Z,99784.20
2019-03-18T04:44:09.002Z,99786.74
2019-03-18T04:46:38.344Z,99789.09
2019-03-18T04:49:07.594Z,99797.78
2019-03-18T04:51:36.846Z,99796.79
2019-03-18T04:54:06.123Z,99798.67
2019-03-18T04:56:35.370Z,99801.59
2019-03-18T04:59:04.618Z,99803.19
2019-03-18T05:01:33.857Z,99796.42
2019-03-18T05:04:03.125Z,99797.92
2019-03-18T05:06:32.376Z,99791.81
2019-03-18T05:09:01.644Z,99793.33
2019-03-18T05:11:31.287Z,99794.52
2019-03-18T05:14:00.820Z,99804.51
2019-03-18T05:16:30.048Z,99801.59
2019-03-18T05:18:59.365Z,99801.84
2019-03-18T05:21:28.891Z,99820.13
2019-03-18T05:23:58.171Z,99815.03
2019-03-18T05:26:27.660Z,99812.89
2019-03-18T05:28:56.945Z,99822.06
2019-03-18T05:31:26.259Z,99823.69
2019-03-18T05:33:55.529Z,99822.22
2019-03-18T05:36:24.819Z,99820.33
2019-03-18T05:38:54.127Z,99822.27
2019-03-18T05:41:23.442Z,99830.64
2019-03-18T05:43:52.704Z,99822.59
2019-03-18T05:46:21.937Z,99839.30
2019-03-18T05:48:51.514Z,99847.66
2019-03-18T05:51:21.057Z,99857.80
2019-03-18T05:53:50.335Z,99870.48
2019-03-18T05:56:19.872Z,99882.34
2019-03-18T05:58:49.139Z,99871.97
2019-03-18T06:01:18.361Z,99883.70
2019-03-18T06:03:47.644Z,99885.56
2019-03-18T06:06:17.293Z,99889.16
2019-03-18T06:08:46.939Z,99894.53
2019-03-18T06:11:16.441Z,99894.53
2019-03-18T06:13:45.712Z,99899.50
2019-03-18T06:16:15.274Z,99903.02
2019-03-18T06:18:44.598Z,99911.07
2019-03-18T06:21:13.933Z,99916.24
2019-03-18T06:23:43.635Z,99904.44
2019-03-18T06:26:12.924Z,99917.59
2019-03-18T06:28:42.581Z,99926.44
2019-03-18T06:31:12.165Z,99926.16
2019-03-18T06:33:41.493Z,99933.62
2019-03-18T06:36:10.792Z,99933.90
2019-03-18T06:38:40.117Z,99944.95
2019-03-18T06:41:09.385Z,99944.50
2019-03-18T06:43:38.675Z,99943.30
2019-03-18T06:46:28.121Z,99952.61
2019-03-18T06:48:57.472Z,99956.44
2019-03-18T06:51:26.854Z,99967.33
2019-03-18T06:53:56.133Z,99970.84
2019-03-18T06:56:25.399Z,99963.61
2019-03-18T06:58:54.690Z,99968.38
2019-03-18T07:01:24.324Z,99971.22
2019-03-18T07:03:53.610Z,99972.75
2019-03-18T07:06:22.876Z,99978.62
2019-03-18T07:08:52.148Z,99983.19
2019-03-18T07:11:21.778Z,99980.41
2019-03-18T07:13:51.336Z,99974.12
2019-03-18T07:16:20.615Z,99997.13
2019-03-18T07:18:49.873Z,99994.92
2019-03-18T07:21:19.196Z,99985.20
2019-03-18T07:23:48.447Z,100003.00
2019-03-18T07:26:17.702Z,99998.30
2019-03-18T07:28:46.957Z,100000.75
2019-03-18T07:31:16.225Z,99996.34
2019-03-18T07:33:45.521Z,100011.73
2019-03-18T07:36:14.860Z,100017.56
2019-03-18T07:38:44.388Z,100008.16
2019-03-18T07:41:13.671Z,100015.71
2019-03-18T07:43:42.926Z,100017.22
2019-03-18T07:46:12.204Z,100013.85
2019-03-18T07:48:41.805Z,100022.52
2019-03-18T07:51:11.070Z,100021.92
2019-03-18T07:53:40.579Z,100020.50
2019-03-18T07:56:09.848Z,100030.45
2019-03-18T07:58:39.183Z,100028.83
2019-03-18T08:01:08.491Z,100036.50
2019-03-18T08:03:37.767Z,100037.09
2019-03-18T08:06:07.025Z,100030.78
2019-03-18T08:08:36.811Z,100030.73
2019-03-18T08:11:06.157Z,100057.28
2019-03-18T08:13:35.688Z,100045.77
2019-03-18T08:16:05.355Z,100053.33
2019-03-18T08:18:43.036Z,100058.95
2019-03-18T08:21:06.395Z,100063.41
2019-03-18T08:23:36.037Z,100068.26
2019-03-18T08:26:05.592Z,100064.41
2019-03-18T08:28:35.181Z,100065.45
2019-03-18T08:31:04.455Z,100078.52
2019-03-18T08:33:33.939Z,100091.86
2019-03-18T08:36:03.539Z,100077.30
2019-03-18T08:44:02.201Z,100094.17
2019-03-18T08:46:34.919Z,100092.96
2019-03-18T08:53:03.532Z,100103.81
2019-03-18T08:55:32.863Z,100102.07
2019-03-18T08:58:02.728Z,100099.72
2019-03-18T09:00:32.172Z,100106.05
2019-03-18T09:03:01.877Z,100109.16
2019-03-18T09:05:31.649Z,100093.45
2019-03-18T09:08:02.762Z,100111.28
2019-03-18T09:10:51.030Z,100100.80
2019-03-18T09:13:20.767Z,100119.69
2019-03-18T09:15:50.354Z,100112.62
2019-03-18T09:18:38.727Z,100121.20
2019-03-18T09:21:08.359Z,100127.25
2019-03-18T09:23:37.777Z,100112.56
2019-03-18T09:26:07.204Z,100127.14
2019-03-18T09:28:36.634Z,100119.10
2019-03-18T09:31:06.065Z,100124.89
2019-03-18T09:33:35.864Z,100126.82
2019-03-18T09:36:05.686Z,100137.61
2019-03-18T09:38:35.047Z,100089.73
2019-03-18T09:41:04.376Z,100156.92
2019-03-18T09:43:34.151Z,100153.00
2019-03-18T09:46:03.602Z,100151.81
2019-03-18T09:48:33.302Z,100153.91
2019-03-18T09:51:02.669Z,100162.57
2019-03-18T09:53:32.456Z,100071.34
2019-03-18T09:56:01.809Z,100162.48
2019-03-18T09:58:31.481Z,100130.95
2019-03-18T10:01:00.911Z,100176.23
2019-03-18T10:03:30.927Z,100179.30
2019-03-18T10:06:00.648Z,100182.09
2019-03-18T10:08:29.982Z,100189.53
2019-03-18T10:10:59.337Z,100195.17
2019-03-18T10:13:28.915Z,100198.63
2019-03-18T10:15:58.265Z,100200.09
2019-03-18T10:18:27.576Z,100201.70
2019-03-18T10:20:57.191Z,100204.30
2019-03-18T10:23:26.698Z,100217.25
2019-03-18T10:25:56.318Z,100225.75
2019-03-18T10:28:25.945Z,100242.02
2019-03-18T10:30:55.236Z,100249.16
2019-03-18T10:33:24.530Z,100211.75
2019-03-18T10:35:54.403Z,100263.70
2019-03-18T10:38:23.836Z,100267.77
2019-03-18T10:40:53.400Z,100266.21
2019-03-18T10:43:23.012Z,100199.33
2019-03-18T10:45:52.307Z,100262.92
2019-03-18T10:48:21.706Z,100288.59
2019-03-18T10:50:50.995Z,100274.84
2019-03-18T10:53:20.564Z,100273.12
2019-03-18T10:55:50.163Z,100268.34
2019-03-18T10:58:19.553Z,100260.33
2019-03-18T11:00:48.926Z,100263.39
2019-03-18T11:03:18.268Z,100251.83
2019-03-18T11:05:47.549Z,100245.55
2019-03-18T11:10:52.065Z,100235.95
2019-03-18T11:13:21.374Z,100228.61
2019-03-18T11:15:50.651Z,100224.62
2019-03-18T11:18:20.002Z,100216.27
2019-03-18T11:20:49.311Z,100212.84
2019-03-18T11:23:18.625Z,100216.45
2019-03-18T11:25:47.901Z,100220.23
2019-03-18T11:28:17.221Z,100219.74
2019-03-18T11:30:46.869Z,100221.29
2019-03-18T11:33:16.130Z,100218.92
2019-03-18T11:35:45.541Z,100229.44
2019-03-18T11:38:15.177Z,100218.58
2019-03-18T11:40:44.453Z,100231.34
2019-03-18T11:43:14.048Z,100242.83
2019-03-18T11:45:43.368Z,100241.47
2019-03-18T11:48:12.653Z,100249.39
2019-03-18T11:50:41.928Z,100266.25
2019-03-18T11:53:14.526Z,100254.32
2019-03-18T11:55:42.201Z,100258.59
2019-03-18T11:58:11.437Z,100238.63
2019-03-18T12:00:40.702Z,100257.77
2019-03-18T12:03:10.272Z,100269.33
2019-03-18T12:05:39.948Z,100264.89
2019-03-18T12:08:09.263Z,100273.72
2019-03-18T12:10:38.894Z,100272.95
2019-03-18T12:13:27.232Z,100269.72
2019-03-18T12:15:56.507Z,100267.15
2019-03-18T12:18:25.797Z,100267.38
2019-03-18T12:20:55.126Z,100266.30
2019-03-18T12:23:24.893Z,100281.34
2019-03-18T12:25:54.169Z,100304.76
2019-03-18T12:28:23.763Z,100331.42
2019-03-18T12:30:53.030Z,100326.30
2019-03-18T12:33:23.288Z,100320.38
2019-03-18T12:35:52.588Z,100323.09
2019-03-18T12:38:22.420Z,100322.98
2019-03-18T12:40:51.708Z,100326.28
2019-03-18T12:43:20.940Z,100314.20
2019-03-18T12:45:50.225Z,100322.49
2019-03-18T12:48:19.478Z,100325.59
2019-03-18T12:50:55.665Z,100322.16
2019-03-18T12:53:19.973Z,100323.14
2019-03-18T12:55:49.268Z,100317.86
2019-03-18T12:58:18.672Z,100329.59
2019-03-18T13:00:47.972Z,100327.38
2019-03-18T13:03:17.204Z,100334.17
2019-03-18T13:05:46.465Z,100335.97
2019-03-18T13:08:15.677Z,100336.69
2019-03-18T13:10:44.939Z,100336.13
2019-03-18T13:13:14.185Z,100333.47
2019-03-18T13:15:43.823Z,100347.64
2019-03-18T13:18:13.420Z,100343.05
2019-03-18T13:20:42.771Z,100346.87
2019-03-18T13:23:12.047Z,100355.77
2019-03-18T13:25:41.388Z,100357.56
2019-03-18T13:28:10.618Z,100349.42
2019-03-18T13:30:39.876Z,100370.69
2019-03-18T13:33:09.585Z,100376.55
2019-03-18T13:35:39.076Z,100375.19
2019-03-18T13:38:08.370Z,100374.91
2019-03-18T13:40:37.664Z,100371.47
2019-03-18T13:43:06.939Z,100373.30
2019-03-18T13:45:36.485Z,100353.70
2019-03-18T13:48:05.812Z,100344.84
2019-03-18T13:50:35.001Z,100347.19
2019-03-18T13:53:04.253Z,100347.75
2019-03-18T13:55:33.569Z,100341.70
2019-03-18T13:58:03.139Z,100356.17
2019-03-18T14:00:32.509Z,100357.27
2019-03-18T14:03:01.855Z,100373.00
2019-03-18T14:05:31.113Z,100379.76
2019-03-18T14:08:01.365Z,100386.48
2019-03-18T14:10:50.422Z,100381.69
2019-03-18T14:13:19.817Z,100406.01
2019-03-18T14:15:49.308Z,100407.49
2019-03-18T14:18:18.605Z,100414.48
2019-03-18T14:20:47.827Z,100419.36
2019-03-18T14:23:17.128Z,100438.58
2019-03-18T14:25:46.358Z,100430.79
2019-03-18T14:28:15.588Z,100426.98
2019-03-18T14:30:44.824Z,100418.36
2019-03-18T14:33:14.048Z,100405.03
2019-03-18T14:35:43.555Z,100406.94
2019-03-18T14:38:13.067Z,100408.45
2019-03-18T14:40:42.270Z,100409.30
2019-03-18T14:43:11.664Z,100398.19
2019-03-18T14:45:41.168Z,100389.27
2019-03-18T14:48:10.444Z,100367.28
2019-03-18T14:50:39.685Z,100359.36
2019-03-18T14:53:09.204Z,100359.59
2019-03-18T14:55:38.478Z,100358.11
2019-03-18T14:58:07.757Z,100360.88
2019-03-18T15:00:37.002Z,100362.64
2019-03-18T15:03:06.362Z,100372.41
2019-03-18T15:08:23.869Z,100373.66
2019-03-18T15:10:53.444Z,100400.13
2019-03-18T15:13:30.719Z,100423.18
2019-03-18T15:15:53.698Z,100443.80
2019-03-18T15:18:22.982Z,100460.77
2019-03-18T15:20:52.594Z,100464.41
2019-03-18T15:23:22.018Z,100466.59
2019-03-18T15:25:52.253Z,100453.68
2019-03-18T15:28:21.974Z,100458.66
2019-03-18T15:30:51.312Z,100458.23
2019-03-18T15:33:20.620Z,100466.73
2019-03-18T15:35:49.988Z,100462.28
2019-03-18T15:38:19.325Z,100461.27
2019-03-18T15:40:48.791Z,100455.22
2019-03-18T15:43:18.514Z,100459.56
2019-03-18T15:45:47.853Z,100461.41
2019-03-18T15:48:17.478Z,100446.92
2019-03-18T15:50:47.260Z,100445.12
2019-03-18T15:53:17.394Z,100444.53
2019-03-18T15:55:47.053Z,100434.92
2019-03-18T15:58:16.356Z,100437.78
2019-03-18T16:00:45.735Z,100452.88
2019-03-18T16:03:15.384Z,100468.00
2019-03-18T16:05:45.147Z,100475.27
2019-03-18T16:08:14.828Z,100475.45
2019-03-18T16:11:03.209Z,100480.91
2019-03-18T16:13:32.455Z,100478.91
2019-03-18T16:16:40.255Z,100478.53
2019-03-18T16:19:09.744Z,100472.59
2019-03-18T16:21:39.084Z,100471.75
2019-03-18T16:24:27.415Z,100466.11
2019-03-18T16:26:56.664Z,100474.13
2019-03-18T16:29:26.467Z,100475.98
2019-03-18T16:31:56.274Z,100480.66
2019-03-18T16:34:26.514Z,100477.67
2019-03-18T16:36:56.123Z,100471.09
2019-03-18T16:39:25.859Z,100466.00
2019-03-18T16:41:55.515Z,100412.94
2019-03-18T16:44:24.919Z,100475.19
2019-03-18T16:46:54.524Z,100482.27
2019-03-18T16:49:43.281Z,100491.86
2019-03-18T16:52:13.109Z,100496.81
2019-03-18T16:54:57.651Z,100503.92
2019-03-18T16:57:27.214Z,100509.14
2019-03-18T16:59:56.521Z,100509.45
2019-03-18T17:02:25.933Z,100500.54
2019-03-18T17:04:55.350Z,100494.87
2019-03-18T17:07:24.745Z,100501.16
2019-03-18T17:09:54.166Z,100496.09
2019-03-18T17:12:23.587Z,100495.94
2019-03-18T17:14:53.244Z,100497.09
2019-03-18T17:17:22.891Z,100499.87
2019-03-18T17:19:52.217Z,100509.75
2019-03-18T17:22:32.838Z,100510.63
2019-03-18T17:25:14.191Z,100510.39
2019-03-18T17:27:43.945Z,100513.25
2019-03-18T17:30:33.465Z,100508.64
2019-03-18T17:33:02.919Z,100508.23
2019-03-18T17:35:32.251Z,100488.05
2019-03-18T17:38:02.741Z,100501.87
2019-03-18T17:40:31.967Z,100493.55
2019-03-18T17:45:53.043Z,100495.71
2019-03-18T17:48:22.746Z,100497.80
2019-03-18T17:50:52.425Z,100493.48
2019-03-18T17:53:22.191Z,100497.75
2019-03-18T17:55:51.928Z,100498.41
2019-03-18T17:58:21.958Z,100431.37
2019-03-18T18:00:53.245Z,100502.82
2019-03-18T18:03:23.281Z,100456.19
2019-03-18T18:05:52.940Z,100521.57
2019-03-18T18:08:23.085Z,100524.20
2019-03-18T18:10:53.567Z,100530.17
2019-03-18T18:13:23.463Z,100532.22
2019-03-18T18:15:53.511Z,100535.04
2019-03-18T18:18:23.012Z,100530.39
2019-03-18T18:20:52.554Z,100534.17
2019-03-18T18:23:22.078Z,100541.92
2019-03-18T18:25:51.531Z,100537.50
2019-03-18T18:28:40.228Z,100541.09
2019-03-18T18:31:28.894Z,100540.88
2019-03-18T18:34:18.187Z,100543.66
2019-03-18T18:36:47.811Z,100546.33
2019-03-18T18:39:17.900Z,100513.38
2019-03-18T18:41:47.951Z,100553.86
2019-03-18T18:44:17.273Z,100566.62
2019-03-18T18:46:47.270Z,100565.47
2019-03-18T18:49:17.222Z,100565.41
2019-03-18T18:52:06.386Z,100573.88
2019-03-18T18:54:36.183Z,100572.33
2019-03-18T18:57:25.464Z,100576.67
2019-03-18T18:59:54.916Z,100583.82
2019-03-18T19:02:24.484Z,100587.12
2019-03-18T19:04:54.249Z,100590.60
2019-03-18T19:07:23.670Z,100592.16
2019-03-18T19:09:53.825Z,100592.05
2019-03-18T19:12:23.577Z,100602.57
2019-03-18T19:14:53.554Z,100603.52
2019-03-18T19:17:23.156Z,100603.19
2019-03-18T19:19:52.867Z,100611.25
2019-03-18T19:22:22.730Z,100625.95
2019-03-18T19:24:52.493Z,100633.47
2019-03-18T19:27:21.886Z,100631.40
2019-03-18T19:29:51.223Z,100638.64
2019-03-18T19:32:20.990Z,100637.97
2019-03-18T19:35:09.650Z,100638.67
2019-03-18T19:37:40.003Z,100641.69
2019-03-18T19:40:11.025Z,100640.06
2019-03-18T19:42:40.679Z,100642.98
2019-03-18T19:45:11.817Z,100643.05
2019-03-18T19:47:42.267Z,100647.67
2019-03-18T19:50:14.540Z,100653.75
2019-03-18T19:53:03.161Z,100652.01
2019-03-18T19:55:51.906Z,100651.55
2019-03-18T19:58:29.096Z,100655.28
2019-03-18T20:00:58.734Z,100641.38
2019-03-18T20:03:28.188Z,100656.25
2019-03-18T20:05:57.839Z,100657.24
2019-03-18T20:08:27.441Z,100657.39
2019-03-18T20:10:57.258Z,100655.62
2019-03-18T20:13:27.155Z,100658.09
2019-03-18T20:15:56.987Z,100651.66
2019-03-18T20:18:26.804Z,100647.52
2019-03-18T20:20:57.043Z,100655.32
2019-03-18T20:23:28.091Z,100660.65
2019-03-18T20:25:58.782Z,100658.38
2019-03-18T20:28:48.315Z,100664.63
2019-03-18T20:31:37.726Z,100666.05
2019-03-18T20:34:07.431Z,100670.54
2019-03-18T20:36:36.928Z,100672.59
2019-03-18T20:39:08.115Z,100665.46
2019-03-18T20:41:37.561Z,100673.17
2019-03-18T20:44:26.218Z,100678.16
2019-03-18T20:46:55.625Z,100688.27
2019-03-18T20:49:24.984Z,100695.36
2019-03-18T20:51:54.394Z,100693.20
2019-03-18T20:54:23.760Z,100657.55
2019-03-18T20:56:53.494Z,100692.39
2019-03-18T20:59:42.239Z,100693.39
2019-03-18T21:02:11.584Z,100694.06
2019-03-18T21:04:41.282Z,100699.23
2019-03-18T21:07:10.614Z,100709.97
2019-03-18T21:09:39.991Z,100717.38
2019-03-18T21:12:09.335Z,100718.05
2019-03-18T21:14:39.075Z,100690.77
2019-03-18T21:17:08.422Z,100724.72
2019-03-18T21:19:37.824Z,100725.09
2019-03-18T21:22:07.171Z,100728.08
2019-03-18T21:24:36.951Z,100734.20
2019-03-18T21:27:06.297Z,100741.14
2019-03-18T21:29:54.962Z,100750.87
2019-03-18T21:32:24.642Z,100748.74
2019-03-18T21:35:13.541Z,100755.48
2019-03-18T21:37:43.132Z,100763.57
2019-03-18T21:40:13.474Z,100766.67
2019-03-18T21:43:01.753Z,100774.06
2019-03-18T21:45:31.041Z,100787.94
2019-03-18T21:48:00.295Z,100790.55
2019-03-18T21:50:29.549Z,100799.11
2019-03-18T21:52:59.202Z,100800.64
2019-03-18T21:55:28.479Z,100804.42
2019-03-18T21:57:58.003Z,100806.19
2019-03-18T22:00:27.386Z,100806.11
2019-03-18T22:02:56.634Z,100814.47
2019-03-18T22:05:25.923Z,100820.66
2019-03-18T22:07:55.235Z,100820.84
2019-03-18T22:10:24.970Z,100826.72
2019-03-18T22:12:54.680Z,100831.41
2019-03-18T22:15:24.056Z,100836.95
2019-03-18T22:17:53.417Z,100835.64
2019-03-18T22:21:02.101Z,100841.02
2019-03-18T22:23:44.301Z,100840.13
2019-03-18T22:26:13.650Z,100826.86
2019-03-18T22:28:43.362Z,100825.12
2019-03-18T22:31:12.662Z,100767.88
2019-03-18T22:33:41.950Z,100799.50
2019-03-18T22:36:30.691Z,100795.68
2019-03-18T22:39:00.041Z,100788.99
2019-03-18T22:41:30.361Z,100793.86
2019-03-18T22:44:01.261Z,100800.10
2019-03-18T22:46:30.616Z,100809.13
2019-03-18T22:48:59.986Z,100807.39
2019-03-18T22:51:28.828Z,100802.59
2019-03-18T22:53:58.126Z,100805.47
2019-03-18T22:56:27.951Z,100804.56
2019-03-18T22:59:16.602Z,100806.21
2019-03-18T23:01:46.653Z,100807.24
2019-03-18T23:04:16.138Z,100804.56
2019-03-18T23:06:45.602Z,100809.38
2019-03-18T23:09:15.091Z,100810.21
2019-03-18T23:11:47.620Z,100807.63
2019-03-18T23:14:17.101Z,100810.53
2019-03-18T23:16:46.589Z,100799.58
2019-03-18T23:19:16.118Z,100796.05
2019-03-18T23:21:45.623Z,100797.93
2019-03-18T23:24:15.065Z,100798.14
2019-03-18T23:26:44.990Z,100802.05
2019-03-18T23:29:14.507Z,100809.95
2019-03-18T23:31:44.041Z,100815.64
2019-03-18T23:34:13.668Z,100821.26
2019-03-18T23:36:43.706Z,100810.21
2019-03-18T23:39:13.259Z,100819.57
2019-03-18T23:41:42.735Z,100819.91
2019-03-18T23:44:12.307Z,100816.89
2019-03-18T23:46:42.084Z,100821.59
2019-03-18T23:49:11.559Z,100827.59
2019-03-18T23:51:41.089Z,100826.59
2019-03-18T23:54:10.639Z,100828.89
2019-03-18T23:56:40.654Z,100754.88
2019-03-18T23:59:10.927Z,100821.85
